sensor_id;sensor_type;location;lat;lon;timestamp;temperature;humidity
65036;DHT22;51603;49.300;8.880;2023-08-06T00:01:43;15.60;99.90
65036;DHT22;51603;49.300;8.880;2023-08-06T00:04:09;15.60;99.90
65036;DHT22;51603;49.300;8.880;2023-08-06T00:06:34;15.50;99.90
65036;DHT22;51603;49.300;8.880;2023-08-06T00:09:00;15.50;99.90
65036;DHT22;51603;49.300;8.880;2023-08-06T00:11:25;15.50;99.90
65036;DHT22;51603;49.300;8.880;2023-08-06T00:13:51;15.50;99.90
65036;DHT22;51603;49.300;8.880;2023-08-06T00:16:16;15.40;99.90
65036;DHT22;51603;49.300;8.880;2023-08-06T00:18:42;15.30;99.90
65036;DHT22;51603;49.300;8.880;2023-08-06T00:21:07;15.30;99.90
65036;DHT22;51603;49.300;8.880;2023-08-06T00:23:33;15.20;99.90
65036;DHT22;51603;49.300;8.880;2023-08-06T00:25:58;15.10;99.90
65036;DHT22;51603;49.300;8.880;2023-08-06T00:28:24;15.10;99.90
65036;DHT22;51603;49.300;8.880;2023-08-06T00:30:56;15.00;99.90
65036;DHT22;51603;49.300;8.880;2023-08-06T00:33:22;15.00;99.90
65036;DHT22;51603;49.300;8.880;2023-08-06T00:35:48;15.00;99.90
65036;DHT22;51603;49.300;8.880;2023-08-06T00:38:13;15.00;99.90
65036;DHT22;51603;49.300;8.880;2023-08-06T00:40:39;14.90;99.90
65036;DHT22;51603;49.300;8.880;2023-08-06T00:43:04;14.80;99.90
65036;DHT22;51603;49.300;8.880;2023-08-06T00:45:30;14.90;99.90
65036;DHT22;51603;49.300;8.880;2023-08-06T00:47:58;15.00;99.90
65036;DHT22;51603;49.300;8.880;2023-08-06T00:50:24;15.10;99.90
65036;DHT22;51603;49.300;8.880;2023-08-06T00:52:49;15.20;99.90
65036;DHT22;51603;49.300;8.880;2023-08-06T00:55:15;15.20;99.90
65036;DHT22;51603;49.300;8.880;2023-08-06T00:57:41;15.20;99.90
65036;DHT22;51603;49.300;8.880;2023-08-06T01:00:07;15.20;99.90
65036;DHT22;51603;49.300;8.880;2023-08-06T01:02:33;15.10;99.90
65036;DHT22;51603;49.300;8.880;2023-08-06T01:04:58;15.00;99.90
65036;DHT22;51603;49.300;8.880;2023-08-06T01:10:36;15.00;99.90
65036;DHT22;51603;49.300;8.880;2023-08-06T01:16:00;15.20;99.90
65036;DHT22;51603;49.300;8.880;2023-08-06T01:18:27;15.20;99.90
65036;DHT22;51603;49.300;8.880;2023-08-06T01:20:52;15.20;99.90
65036;DHT22;51603;49.300;8.880;2023-08-06T01:23:18;15.20;99.90
65036;DHT22;51603;49.300;8.880;2023-08-06T01:28:56;15.20;99.90
65036;DHT22;51603;49.300;8.880;2023-08-06T01:31:27;15.20;99.90
65036;DHT22;51603;49.300;8.880;2023-08-06T01:33:56;15.30;99.90
65036;DHT22;51603;49.300;8.880;2023-08-06T01:36:23;15.30;99.90
65036;DHT22;51603;49.300;8.880;2023-08-06T01:38:51;15.30;99.90
65036;DHT22;51603;49.300;8.880;2023-08-06T01:41:17;15.30;99.90
65036;DHT22;51603;49.300;8.880;2023-08-06T01:43:42;15.20;99.90
65036;DHT22;51603;49.300;8.880;2023-08-06T01:46:08;15.20;99.90
65036;DHT22;51603;49.300;8.880;2023-08-06T01:48:33;15.20;99.90
65036;DHT22;51603;49.300;8.880;2023-08-06T01:50:59;15.10;99.90
65036;DHT22;51603;49.300;8.880;2023-08-06T01:53:24;15.10;99.90
65036;DHT22;51603;49.300;8.880;2023-08-06T01:55:50;15.20;99.90
65036;DHT22;51603;49.300;8.880;2023-08-06T01:58:15;15.20;99.90
65036;DHT22;51603;49.300;8.880;2023-08-06T02:00:41;15.20;99.90
65036;DHT22;51603;49.300;8.880;2023-08-06T02:03:07;15.20;99.90
65036;DHT22;51603;49.300;8.880;2023-08-06T02:05:32;15.20;99.90
65036;DHT22;51603;49.300;8.880;2023-08-06T02:07:58;15.20;99.90
65036;DHT22;51603;49.300;8.880;2023-08-06T02:10:23;15.30;99.90
65036;DHT22;51603;49.300;8.880;2023-08-06T02:12:49;15.30;99.90
65036;DHT22;51603;49.300;8.880;2023-08-06T02:15:14;15.20;99.90
65036;DHT22;51603;49.300;8.880;2023-08-06T02:17:40;15.20;99.90
65036;DHT22;51603;49.300;8.880;2023-08-06T02:20:06;15.20;99.90
65036;DHT22;51603;49.300;8.880;2023-08-06T02:22:31;15.20;99.90
65036;DHT22;51603;49.300;8.880;2023-08-06T02:24:57;15.20;99.90
65036;DHT22;51603;49.300;8.880;2023-08-06T02:27:23;15.20;99.90
65036;DHT22;51603;49.300;8.880;2023-08-06T02:29:48;15.30;99.90
65036;DHT22;51603;49.300;8.880;2023-08-06T02:32:13;15.30;99.90
65036;DHT22;51603;49.300;8.880;2023-08-06T02:34:39;15.30;99.90
65036;DHT22;51603;49.300;8.880;2023-08-06T02:37:04;15.20;99.90
65036;DHT22;51603;49.300;8.880;2023-08-06T02:39:30;15.10;99.90
65036;DHT22;51603;49.300;8.880;2023-08-06T02:41:55;15.10;99.90
65036;DHT22;51603;49.300;8.880;2023-08-06T02:44:21;15.10;99.90
65036;DHT22;51603;49.300;8.880;2023-08-06T02:46:46;15.10;99.90
65036;DHT22;51603;49.300;8.880;2023-08-06T02:49:12;15.20;99.90
65036;DHT22;51603;49.300;8.880;2023-08-06T02:51:37;15.20;99.90
65036;DHT22;51603;49.300;8.880;2023-08-06T02:54:03;15.10;99.90
65036;DHT22;51603;49.300;8.880;2023-08-06T02:56:28;15.10;99.90
65036;DHT22;51603;49.300;8.880;2023-08-06T02:58:54;15.20;99.90
65036;DHT22;51603;49.300;8.880;2023-08-06T03:01:19;15.10;99.90
65036;DHT22;51603;49.300;8.880;2023-08-06T03:03:45;15.10;99.90
65036;DHT22;51603;49.300;8.880;2023-08-06T03:06:10;15.00;99.90
65036;DHT22;51603;49.300;8.880;2023-08-06T03:08:37;15.00;99.90
65036;DHT22;51603;49.300;8.880;2023-08-06T03:11:02;15.00;99.90
65036;DHT22;51603;49.300;8.880;2023-08-06T03:13:28;15.00;99.90
65036;DHT22;51603;49.300;8.880;2023-08-06T03:15:54;15.00;99.90
65036;DHT22;51603;49.300;8.880;2023-08-06T03:18:20;15.00;99.90
65036;DHT22;51603;49.300;8.880;2023-08-06T03:20:46;15.00;99.90
65036;DHT22;51603;49.300;8.880;2023-08-06T03:23:12;14.90;99.90
65036;DHT22;51603;49.300;8.880;2023-08-06T03:25:37;15.00;99.90
65036;DHT22;51603;49.300;8.880;2023-08-06T03:28:03;15.00;99.90
65036;DHT22;51603;49.300;8.880;2023-08-06T03:30:29;15.00;99.90
65036;DHT22;51603;49.300;8.880;2023-08-06T03:32:54;15.00;99.90
65036;DHT22;51603;49.300;8.880;2023-08-06T03:35:20;15.00;99.90
65036;DHT22;51603;49.300;8.880;2023-08-06T03:37:45;15.00;99.90
65036;DHT22;51603;49.300;8.880;2023-08-06T03:40:11;15.10;99.90
65036;DHT22;51603;49.300;8.880;2023-08-06T03:42:36;15.10;99.90
65036;DHT22;51603;49.300;8.880;2023-08-06T03:45:02;15.20;99.90
65036;DHT22;51603;49.300;8.880;2023-08-06T03:47:28;15.20;99.90
65036;DHT22;51603;49.300;8.880;2023-08-06T03:49:53;15.20;99.90
65036;DHT22;51603;49.300;8.880;2023-08-06T03:52:19;15.20;99.90
65036;DHT22;51603;49.300;8.880;2023-08-06T03:54:44;15.20;99.90
65036;DHT22;51603;49.300;8.880;2023-08-06T03:57:10;15.20;99.90
65036;DHT22;51603;49.300;8.880;2023-08-06T03:59:36;15.10;99.90
65036;DHT22;51603;49.300;8.880;2023-08-06T04:02:01;15.10;99.90
65036;DHT22;51603;49.300;8.880;2023-08-06T04:04:27;15.10;99.90
65036;DHT22;51603;49.300;8.880;2023-08-06T04:06:53;15.00;99.90
65036;DHT22;51603;49.300;8.880;2023-08-06T04:09:18;15.00;99.90
65036;DHT22;51603;49.300;8.880;2023-08-06T04:11:44;15.00;99.90
65036;DHT22;51603;49.300;8.880;2023-08-06T04:14:09;15.00;99.90
65036;DHT22;51603;49.300;8.880;2023-08-06T04:16:35;14.90;99.90
65036;DHT22;51603;49.300;8.880;2023-08-06T04:19:00;14.90;99.90
65036;DHT22;51603;49.300;8.880;2023-08-06T04:21:26;14.90;99.90
65036;DHT22;51603;49.300;8.880;2023-08-06T04:23:51;14.90;99.90
65036;DHT22;51603;49.300;8.880;2023-08-06T04:26:17;14.90;99.90
65036;DHT22;51603;49.300;8.880;2023-08-06T04:28:42;14.90;99.90
65036;DHT22;51603;49.300;8.880;2023-08-06T04:31:08;14.80;99.90
65036;DHT22;51603;49.300;8.880;2023-08-06T04:33:34;14.80;99.90
65036;DHT22;51603;49.300;8.880;2023-08-06T04:35:59;14.70;99.90
65036;DHT22;51603;49.300;8.880;2023-08-06T04:38:25;14.70;99.90
65036;DHT22;51603;49.300;8.880;2023-08-06T04:40:51;14.60;99.90
65036;DHT22;51603;49.300;8.880;2023-08-06T04:43:16;14.60;99.90
65036;DHT22;51603;49.300;8.880;2023-08-06T04:45:53;14.70;99.90
65036;DHT22;51603;49.300;8.880;2023-08-06T04:48:19;14.60;99.90
65036;DHT22;51603;49.300;8.880;2023-08-06T04:50:45;14.50;99.90
65036;DHT22;51603;49.300;8.880;2023-08-06T04:53:11;14.50;99.90
65036;DHT22;51603;49.300;8.880;2023-08-06T04:55:37;14.40;99.90
65036;DHT22;51603;49.300;8.880;2023-08-06T04:58:03;14.40;99.90
65036;DHT22;51603;49.300;8.880;2023-08-06T05:00:28;14.40;99.90
65036;DHT22;51603;49.300;8.880;2023-08-06T05:02:54;14.40;99.90
65036;DHT22;51603;49.300;8.880;2023-08-06T05:05:19;14.40;99.90
65036;DHT22;51603;49.300;8.880;2023-08-06T05:07:48;14.40;99.90
65036;DHT22;51603;49.300;8.880;2023-08-06T05:10:13;14.40;99.90
65036;DHT22;51603;49.300;8.880;2023-08-06T05:12:39;14.40;99.90
65036;DHT22;51603;49.300;8.880;2023-08-06T05:15:05;14.40;99.90
65036;DHT22;51603;49.300;8.880;2023-08-06T05:17:30;14.40;99.90
65036;DHT22;51603;49.300;8.880;2023-08-06T05:19:56;14.40;99.90
65036;DHT22;51603;49.300;8.880;2023-08-06T05:22:21;14.40;99.90
65036;DHT22;51603;49.300;8.880;2023-08-06T05:24:47;14.40;99.90
65036;DHT22;51603;49.300;8.880;2023-08-06T05:27:12;14.50;99.90
65036;DHT22;51603;49.300;8.880;2023-08-06T05:29:38;14.50;99.90
65036;DHT22;51603;49.300;8.880;2023-08-06T05:32:04;14.50;99.90
65036;DHT22;51603;49.300;8.880;2023-08-06T05:34:29;14.50;99.90
65036;DHT22;51603;49.300;8.880;2023-08-06T05:36:55;14.50;99.90
65036;DHT22;51603;49.300;8.880;2023-08-06T05:39:20;14.50;99.90
65036;DHT22;51603;49.300;8.880;2023-08-06T05:41:46;14.50;99.90
65036;DHT22;51603;49.300;8.880;2023-08-06T05:44:11;14.50;99.90
65036;DHT22;51603;49.300;8.880;2023-08-06T05:46:37;14.60;99.90
65036;DHT22;51603;49.300;8.880;2023-08-06T05:49:02;14.60;99.90
65036;DHT22;51603;49.300;8.880;2023-08-06T05:51:28;14.60;99.90
65036;DHT22;51603;49.300;8.880;2023-08-06T05:53:54;14.60;99.90
65036;DHT22;51603;49.300;8.880;2023-08-06T05:56:19;14.60;99.90
65036;DHT22;51603;49.300;8.880;2023-08-06T05:58:45;14.60;99.90
65036;DHT22;51603;49.300;8.880;2023-08-06T06:01:12;14.60;99.90
65036;DHT22;51603;49.300;8.880;2023-08-06T06:03:38;14.50;99.90
65036;DHT22;51603;49.300;8.880;2023-08-06T06:06:04;14.40;99.90
65036;DHT22;51603;49.300;8.880;2023-08-06T06:08:29;14.40;99.90
65036;DHT22;51603;49.300;8.880;2023-08-06T06:10:55;14.20;99.90
65036;DHT22;51603;49.300;8.880;2023-08-06T06:13:20;14.20;99.90
65036;DHT22;51603;49.300;8.880;2023-08-06T06:15:49;14.20;99.90
65036;DHT22;51603;49.300;8.880;2023-08-06T06:18:14;14.20;99.90
65036;DHT22;51603;49.300;8.880;2023-08-06T06:20:40;14.20;99.90
65036;DHT22;51603;49.300;8.880;2023-08-06T06:23:05;14.20;99.90
65036;DHT22;51603;49.300;8.880;2023-08-06T06:25:31;14.20;99.90
65036;DHT22;51603;49.300;8.880;2023-08-06T06:27:56;14.10;99.90
65036;DHT22;51603;49.300;8.880;2023-08-06T06:30:24;14.10;99.90
65036;DHT22;51603;49.300;8.880;2023-08-06T06:32:49;14.00;99.90
65036;DHT22;51603;49.300;8.880;2023-08-06T06:35:15;14.10;99.90
65036;DHT22;51603;49.300;8.880;2023-08-06T06:37:40;14.10;99.90
65036;DHT22;51603;49.300;8.880;2023-08-06T06:40:06;14.10;99.90
65036;DHT22;51603;49.300;8.880;2023-08-06T06:42:32;14.10;99.90
65036;DHT22;51603;49.300;8.880;2023-08-06T06:44:57;14.00;99.90
65036;DHT22;51603;49.300;8.880;2023-08-06T06:47:23;14.10;99.90
65036;DHT22;51603;49.300;8.880;2023-08-06T06:49:48;14.10;99.90
65036;DHT22;51603;49.300;8.880;2023-08-06T06:52:14;14.10;99.90
65036;DHT22;51603;49.300;8.880;2023-08-06T06:54:40;14.10;99.90
65036;DHT22;51603;49.300;8.880;2023-08-06T06:57:05;14.10;99.90
65036;DHT22;51603;49.300;8.880;2023-08-06T06:59:31;14.10;99.90
65036;DHT22;51603;49.300;8.880;2023-08-06T07:01:56;14.10;99.90
65036;DHT22;51603;49.300;8.880;2023-08-06T07:04:22;14.20;99.90
65036;DHT22;51603;49.300;8.880;2023-08-06T07:06:47;14.20;99.90
65036;DHT22;51603;49.300;8.880;2023-08-06T07:09:13;14.20;99.90
65036;DHT22;51603;49.300;8.880;2023-08-06T07:11:38;14.20;99.90
65036;DHT22;51603;49.300;8.880;2023-08-06T07:14:04;14.20;99.90
65036;DHT22;51603;49.300;8.880;2023-08-06T07:16:29;14.20;99.90
65036;DHT22;51603;49.300;8.880;2023-08-06T07:18:55;14.20;99.90
65036;DHT22;51603;49.300;8.880;2023-08-06T07:21:21;14.30;99.90
65036;DHT22;51603;49.300;8.880;2023-08-06T07:23:47;14.30;99.90
65036;DHT22;51603;49.300;8.880;2023-08-06T07:26:14;14.30;99.90
65036;DHT22;51603;49.300;8.880;2023-08-06T07:28:40;14.30;99.90
65036;DHT22;51603;49.300;8.880;2023-08-06T07:31:05;14.30;99.90
65036;DHT22;51603;49.300;8.880;2023-08-06T07:33:31;14.20;99.90
65036;DHT22;51603;49.300;8.880;2023-08-06T07:35:56;14.30;99.90
65036;DHT22;51603;49.300;8.880;2023-08-06T07:38:22;14.30;99.90
65036;DHT22;51603;49.300;8.880;2023-08-06T07:40:47;14.30;99.90
65036;DHT22;51603;49.300;8.880;2023-08-06T07:43:13;14.30;99.90
65036;DHT22;51603;49.300;8.880;2023-08-06T07:45:38;14.20;99.90
65036;DHT22;51603;49.300;8.880;2023-08-06T07:48:04;14.20;99.90
65036;DHT22;51603;49.300;8.880;2023-08-06T07:50:30;14.20;99.90
65036;DHT22;51603;49.300;8.880;2023-08-06T07:52:55;14.10;99.90
65036;DHT22;51603;49.300;8.880;2023-08-06T07:55:21;14.10;99.90
65036;DHT22;51603;49.300;8.880;2023-08-06T07:57:46;14.20;99.90
65036;DHT22;51603;49.300;8.880;2023-08-06T08:00:12;14.20;99.90
65036;DHT22;51603;49.300;8.880;2023-08-06T08:02:37;14.20;99.90
65036;DHT22;51603;49.300;8.880;2023-08-06T08:05:03;14.20;99.90
65036;DHT22;51603;49.300;8.880;2023-08-06T08:07:29;14.30;99.90
65036;DHT22;51603;49.300;8.880;2023-08-06T08:09:56;14.30;99.90
65036;DHT22;51603;49.300;8.880;2023-08-06T08:12:22;14.40;99.90
65036;DHT22;51603;49.300;8.880;2023-08-06T08:14:47;14.40;99.90
65036;DHT22;51603;49.300;8.880;2023-08-06T08:17:13;14.30;99.90
65036;DHT22;51603;49.300;8.880;2023-08-06T08:19:40;14.20;99.90
65036;DHT22;51603;49.300;8.880;2023-08-06T08:22:05;14.20;99.90
65036;DHT22;51603;49.300;8.880;2023-08-06T08:24:31;14.20;99.90
65036;DHT22;51603;49.300;8.880;2023-08-06T08:26:56;14.20;99.90
65036;DHT22;51603;49.300;8.880;2023-08-06T08:29:22;14.20;99.90
65036;DHT22;51603;49.300;8.880;2023-08-06T08:31:48;14.20;99.90
65036;DHT22;51603;49.300;8.880;2023-08-06T08:34:17;14.30;99.90
65036;DHT22;51603;49.300;8.880;2023-08-06T08:36:43;14.40;99.90
65036;DHT22;51603;49.300;8.880;2023-08-06T08:39:08;14.40;99.90
65036;DHT22;51603;49.300;8.880;2023-08-06T08:41:35;14.40;99.90
65036;DHT22;51603;49.300;8.880;2023-08-06T08:44:01;14.50;99.90
65036;DHT22;51603;49.300;8.880;2023-08-06T08:46:29;14.50;99.90
65036;DHT22;51603;49.300;8.880;2023-08-06T08:48:56;14.50;99.90
65036;DHT22;51603;49.300;8.880;2023-08-06T08:51:23;14.60;99.90
65036;DHT22;51603;49.300;8.880;2023-08-06T08:53:49;14.70;99.90
65036;DHT22;51603;49.300;8.880;2023-08-06T08:56:18;14.80;99.90
65036;DHT22;51603;49.300;8.880;2023-08-06T08:58:44;14.90;99.90
65036;DHT22;51603;49.300;8.880;2023-08-06T09:01:10;15.00;99.90
65036;DHT22;51603;49.300;8.880;2023-08-06T09:03:36;15.10;99.90
65036;DHT22;51603;49.300;8.880;2023-08-06T09:06:02;15.10;99.90
65036;DHT22;51603;49.300;8.880;2023-08-06T09:08:34;15.20;99.90
65036;DHT22;51603;49.300;8.880;2023-08-06T09:11:02;15.20;99.90
65036;DHT22;51603;49.300;8.880;2023-08-06T09:13:29;15.30;99.90
65036;DHT22;51603;49.300;8.880;2023-08-06T09:15:55;15.30;99.90
65036;DHT22;51603;49.300;8.880;2023-08-06T09:18:27;15.20;99.90
65036;DHT22;51603;49.300;8.880;2023-08-06T09:20:54;15.10;99.90
65036;DHT22;51603;49.300;8.880;2023-08-06T09:23:20;15.10;99.90
65036;DHT22;51603;49.300;8.880;2023-08-06T09:25:47;15.00;99.90
65036;DHT22;51603;49.300;8.880;2023-08-06T09:28:12;15.00;99.90
65036;DHT22;51603;49.300;8.880;2023-08-06T09:30:38;15.00;99.90
65036;DHT22;51603;49.300;8.880;2023-08-06T09:33:08;15.00;99.90
65036;DHT22;51603;49.300;8.880;2023-08-06T09:35:35;15.10;99.90
65036;DHT22;51603;49.300;8.880;2023-08-06T09:38:09;15.10;99.90
65036;DHT22;51603;49.300;8.880;2023-08-06T09:40:36;15.20;99.90
65036;DHT22;51603;49.300;8.880;2023-08-06T09:43:01;15.30;99.90
65036;DHT22;51603;49.300;8.880;2023-08-06T09:45:32;15.40;99.90
65036;DHT22;51603;49.300;8.880;2023-08-06T09:47:58;15.50;99.90
65036;DHT22;51603;49.300;8.880;2023-08-06T09:50:31;15.70;99.90
65036;DHT22;51603;49.300;8.880;2023-08-06T09:52:57;16.00;99.90
65036;DHT22;51603;49.300;8.880;2023-08-06T09:55:24;16.00;99.90
65036;DHT22;51603;49.300;8.880;2023-08-06T09:57:52;16.00;99.90
65036;DHT22;51603;49.300;8.880;2023-08-06T10:00:17;16.00;99.90
65036;DHT22;51603;49.300;8.880;2023-08-06T10:02:43;16.10;99.90
65036;DHT22;51603;49.300;8.880;2023-08-06T10:05:10;16.10;99.90
65036;DHT22;51603;49.300;8.880;2023-08-06T10:07:36;16.00;99.90
65036;DHT22;51603;49.300;8.880;2023-08-06T10:10:04;15.80;99.90
65036;DHT22;51603;49.300;8.880;2023-08-06T10:12:46;15.50;99.90
65036;DHT22;51603;49.300;8.880;2023-08-06T10:15:16;15.40;99.90
65036;DHT22;51603;49.300;8.880;2023-08-06T10:17:44;15.30;99.90
65036;DHT22;51603;49.300;8.880;2023-08-06T10:20:11;15.20;99.90
65036;DHT22;51603;49.300;8.880;2023-08-06T10:22:42;15.20;99.90
65036;DHT22;51603;49.300;8.880;2023-08-06T10:25:09;15.30;99.90
65036;DHT22;51603;49.300;8.880;2023-08-06T10:30:32;15.30;99.90
65036;DHT22;51603;49.300;8.880;2023-08-06T10:32:59;15.30;99.90
65036;DHT22;51603;49.300;8.880;2023-08-06T10:35:37;15.30;99.90
65036;DHT22;51603;49.300;8.880;2023-08-06T10:38:10;15.40;99.90
65036;DHT22;51603;49.300;8.880;2023-08-06T10:40:39;15.40;99.90
65036;DHT22;51603;49.300;8.880;2023-08-06T10:43:05;15.40;99.90
65036;DHT22;51603;49.300;8.880;2023-08-06T10:45:36;15.30;99.90
65036;DHT22;51603;49.300;8.880;2023-08-06T10:48:03;15.40;99.90
65036;DHT22;51603;49.300;8.880;2023-08-06T10:50:28;15.40;99.90
65036;DHT22;51603;49.300;8.880;2023-08-06T10:52:54;15.30;99.90
65036;DHT22;51603;49.300;8.880;2023-08-06T10:55:27;15.30;99.90
65036;DHT22;51603;49.300;8.880;2023-08-06T10:57:54;15.20;99.90
65036;DHT22;51603;49.300;8.880;2023-08-06T11:00:21;15.20;99.90
65036;DHT22;51603;49.300;8.880;2023-08-06T11:02:48;15.20;99.90
65036;DHT22;51603;49.300;8.880;2023-08-06T11:05:15;15.10;99.90
65036;DHT22;51603;49.300;8.880;2023-08-06T11:07:40;15.00;99.90
65036;DHT22;51603;49.300;8.880;2023-08-06T11:10:07;14.90;99.90
65036;DHT22;51603;49.300;8.880;2023-08-06T11:12:33;14.90;99.90
65036;DHT22;51603;49.300;8.880;2023-08-06T11:15:00;14.70;99.90
65036;DHT22;51603;49.300;8.880;2023-08-06T11:17:28;14.70;99.90
65036;DHT22;51603;49.300;8.880;2023-08-06T11:19:54;14.60;99.90
65036;DHT22;51603;49.300;8.880;2023-08-06T11:22:21;14.40;99.90
65036;DHT22;51603;49.300;8.880;2023-08-06T11:24:47;14.40;99.90
65036;DHT22;51603;49.300;8.880;2023-08-06T11:27:14;14.30;99.90
65036;DHT22;51603;49.300;8.880;2023-08-06T11:29:41;14.30;99.90
65036;DHT22;51603;49.300;8.880;2023-08-06T11:32:07;14.30;99.90
65036;DHT22;51603;49.300;8.880;2023-08-06T11:34:33;14.30;99.90
65036;DHT22;51603;49.300;8.880;2023-08-06T11:36:59;14.30;99.90
65036;DHT22;51603;49.300;8.880;2023-08-06T11:39:25;14.30;99.90
65036;DHT22;51603;49.300;8.880;2023-08-06T11:41:51;14.30;99.90
65036;DHT22;51603;49.300;8.880;2023-08-06T11:44:19;14.40;99.90
65036;DHT22;51603;49.300;8.880;2023-08-06T11:46:54;14.30;99.90
65036;DHT22;51603;49.300;8.880;2023-08-06T11:49:42;14.30;99.90
65036;DHT22;51603;49.300;8.880;2023-08-06T11:52:14;14.30;99.90
65036;DHT22;51603;49.300;8.880;2023-08-06T11:54:40;14.20;99.90
65036;DHT22;51603;49.300;8.880;2023-08-06T11:57:06;14.20;99.90
65036;DHT22;51603;49.300;8.880;2023-08-06T11:59:32;14.20;99.90
65036;DHT22;51603;49.300;8.880;2023-08-06T12:01:59;14.10;99.90
65036;DHT22;51603;49.300;8.880;2023-08-06T12:04:25;14.20;99.90
65036;DHT22;51603;49.300;8.880;2023-08-06T12:06:50;14.20;99.90
65036;DHT22;51603;49.300;8.880;2023-08-06T12:09:16;14.20;99.90
65036;DHT22;51603;49.300;8.880;2023-08-06T12:11:41;14.20;99.90
65036;DHT22;51603;49.300;8.880;2023-08-06T12:14:07;14.20;99.90
65036;DHT22;51603;49.300;8.880;2023-08-06T12:16:32;14.30;99.90
65036;DHT22;51603;49.300;8.880;2023-08-06T12:18:58;14.30;99.90
65036;DHT22;51603;49.300;8.880;2023-08-06T12:21:23;14.40;99.90
65036;DHT22;51603;49.300;8.880;2023-08-06T12:23:49;14.40;99.90
65036;DHT22;51603;49.300;8.880;2023-08-06T12:26:15;14.40;99.90
65036;DHT22;51603;49.300;8.880;2023-08-06T12:28:40;14.40;99.90
65036;DHT22;51603;49.300;8.880;2023-08-06T12:31:06;14.40;99.90
65036;DHT22;51603;49.300;8.880;2023-08-06T12:33:31;14.40;99.90
65036;DHT22;51603;49.300;8.880;2023-08-06T12:35:57;14.50;99.90
65036;DHT22;51603;49.300;8.880;2023-08-06T12:38:23;14.50;99.90
65036;DHT22;51603;49.300;8.880;2023-08-06T12:40:48;14.50;99.90
65036;DHT22;51603;49.300;8.880;2023-08-06T12:43:14;14.50;99.90
65036;DHT22;51603;49.300;8.880;2023-08-06T12:45:39;14.50;99.90
65036;DHT22;51603;49.300;8.880;2023-08-06T12:48:05;14.50;99.90
65036;DHT22;51603;49.300;8.880;2023-08-06T12:50:30;14.50;99.90
65036;DHT22;51603;49.300;8.880;2023-08-06T12:52:58;14.50;99.90
65036;DHT22;51603;49.300;8.880;2023-08-06T12:55:23;14.50;99.90
65036;DHT22;51603;49.300;8.880;2023-08-06T12:57:49;14.50;99.90
65036;DHT22;51603;49.300;8.880;2023-08-06T13:00:14;14.50;99.90
65036;DHT22;51603;49.300;8.880;2023-08-06T13:02:39;14.50;99.90
65036;DHT22;51603;49.300;8.880;2023-08-06T13:05:05;14.40;99.90
65036;DHT22;51603;49.300;8.880;2023-08-06T13:07:31;14.30;99.90
65036;DHT22;51603;49.300;8.880;2023-08-06T13:09:57;14.30;99.90
65036;DHT22;51603;49.300;8.880;2023-08-06T13:12:22;14.30;99.90
65036;DHT22;51603;49.300;8.880;2023-08-06T13:14:48;14.30;99.90
65036;DHT22;51603;49.300;8.880;2023-08-06T13:17:14;14.30;99.90
65036;DHT22;51603;49.300;8.880;2023-08-06T13:19:40;14.40;99.90
65036;DHT22;51603;49.300;8.880;2023-08-06T13:22:06;14.40;99.90
65036;DHT22;51603;49.300;8.880;2023-08-06T13:24:34;14.50;99.90
65036;DHT22;51603;49.300;8.880;2023-08-06T13:27:00;14.50;99.90
65036;DHT22;51603;49.300;8.880;2023-08-06T13:29:26;14.60;99.90
65036;DHT22;51603;49.300;8.880;2023-08-06T13:31:53;14.60;99.90
65036;DHT22;51603;49.300;8.880;2023-08-06T13:34:18;14.70;99.90
65036;DHT22;51603;49.300;8.880;2023-08-06T13:36:44;14.80;99.90
65036;DHT22;51603;49.300;8.880;2023-08-06T13:39:10;14.90;99.90
65036;DHT22;51603;49.300;8.880;2023-08-06T13:41:37;14.90;99.90
65036;DHT22;51603;49.300;8.880;2023-08-06T13:44:02;14.90;99.90
65036;DHT22;51603;49.300;8.880;2023-08-06T13:46:28;14.90;99.90
65036;DHT22;51603;49.300;8.880;2023-08-06T13:48:53;14.90;99.90
65036;DHT22;51603;49.300;8.880;2023-08-06T13:51:19;14.90;99.90
65036;DHT22;51603;49.300;8.880;2023-08-06T13:53:44;14.80;99.90
65036;DHT22;51603;49.300;8.880;2023-08-06T13:56:10;14.80;99.90
65036;DHT22;51603;49.300;8.880;2023-08-06T13:58:37;14.70;99.90
65036;DHT22;51603;49.300;8.880;2023-08-06T14:01:02;14.60;99.90
65036;DHT22;51603;49.300;8.880;2023-08-06T14:03:28;14.60;99.90
65036;DHT22;51603;49.300;8.880;2023-08-06T14:05:54;14.60;99.90
65036;DHT22;51603;49.300;8.880;2023-08-06T14:08:22;14.60;99.90
65036;DHT22;51603;49.300;8.880;2023-08-06T14:10:48;14.60;99.90
65036;DHT22;51603;49.300;8.880;2023-08-06T14:13:14;14.60;99.90
65036;DHT22;51603;49.300;8.880;2023-08-06T14:15:39;14.70;99.90
65036;DHT22;51603;49.300;8.880;2023-08-06T14:18:08;14.70;99.90
65036;DHT22;51603;49.300;8.880;2023-08-06T14:20:34;14.70;99.90
65036;DHT22;51603;49.300;8.880;2023-08-06T14:23:00;14.80;99.90
65036;DHT22;51603;49.300;8.880;2023-08-06T14:25:25;14.70;99.90
65036;DHT22;51603;49.300;8.880;2023-08-06T14:27:51;14.70;99.90
65036;DHT22;51603;49.300;8.880;2023-08-06T14:30:16;14.70;99.90
65036;DHT22;51603;49.300;8.880;2023-08-06T14:32:42;14.70;99.90
65036;DHT22;51603;49.300;8.880;2023-08-06T14:35:08;14.80;99.90
65036;DHT22;51603;49.300;8.880;2023-08-06T14:37:33;14.80;99.90
65036;DHT22;51603;49.300;8.880;2023-08-06T14:39:59;14.70;99.90
65036;DHT22;51603;49.300;8.880;2023-08-06T14:42:24;14.60;99.90
65036;DHT22;51603;49.300;8.880;2023-08-06T14:44:50;14.60;99.90
65036;DHT22;51603;49.300;8.880;2023-08-06T14:47:16;14.60;99.90
65036;DHT22;51603;49.300;8.880;2023-08-06T14:49:41;14.60;99.90
65036;DHT22;51603;49.300;8.880;2023-08-06T14:52:07;14.60;99.90
65036;DHT22;51603;49.300;8.880;2023-08-06T14:54:32;14.70;99.90
65036;DHT22;51603;49.300;8.880;2023-08-06T14:56:58;14.80;99.90
65036;DHT22;51603;49.300;8.880;2023-08-06T14:59:24;14.80;99.90
65036;DHT22;51603;49.300;8.880;2023-08-06T15:01:50;14.80;99.90
65036;DHT22;51603;49.300;8.880;2023-08-06T15:04:16;14.90;99.90
65036;DHT22;51603;49.300;8.880;2023-08-06T15:06:42;14.90;99.90
65036;DHT22;51603;49.300;8.880;2023-08-06T15:09:07;14.90;99.90
65036;DHT22;51603;49.300;8.880;2023-08-06T15:11:33;14.80;99.90
65036;DHT22;51603;49.300;8.880;2023-08-06T15:13:58;14.80;99.90
65036;DHT22;51603;49.300;8.880;2023-08-06T15:16:26;14.80;99.90
65036;DHT22;51603;49.300;8.880;2023-08-06T15:18:52;14.70;99.90
65036;DHT22;51603;49.300;8.880;2023-08-06T15:21:17;14.70;99.90
65036;DHT22;51603;49.300;8.880;2023-08-06T15:23:43;14.70;99.90
65036;DHT22;51603;49.300;8.880;2023-08-06T15:26:08;14.60;99.90
65036;DHT22;51603;49.300;8.880;2023-08-06T15:28:34;14.50;99.90
65036;DHT22;51603;49.300;8.880;2023-08-06T15:31:01;14.40;99.90
65036;DHT22;51603;49.300;8.880;2023-08-06T15:33:29;14.30;99.90
65036;DHT22;51603;49.300;8.880;2023-08-06T15:35:54;14.30;99.90